METAR Formatted Surface Weather Observation
Issued by NWS

Home | Current Version | Previous Version | Text Only | Print | Product List | Glossary On
Versions: 1 2 3 4 5 6 7 8 9 10 11 12 13 14 15 16
383
SAUS44 KLZK 190754
MTRMWT
METAR KMWT 190753Z AUTO 00000KT 10SM CLR 09/08 A3013 RMK AO2 SLP199
T00890078



USA.gov is the U.S. government's official web portal to all federal, state and local government web resources and services.